Time;durP1;ratioP1;P1;durP2;ratioP2;P2;SDS_P1;SDS_P2;PMS_P1;PMS_P2;Temp;Humidity;BMP_temperature;BMP_pressure;BME280_temperature;BME280_humidity;BME280_pressure;Samples;Min_cycle;Max_cycle;Signal;HPM_P1;HPM_P2
2022/11/15 00:01:22;;;;;;;42.13;29.95;;;15.30;99.90;;;;;;4589011;19;20070;-23
2022/11/15 00:02:53;;;;;;;46.90;32.60;;;15.40;99.90;;;;;;4590106;19;20532;-24
2022/11/15 00:04:24;;;;;;;48.55;32.53;;;15.40;99.90;;;;;;4590676;19;20010;-23
2022/11/15 00:06:00;;;;;;;47.67;31.92;;;15.40;99.90;;;;;;4590639;19;20023;-23
2022/11/15 00:07:31;;;;;;;45.40;31.63;;;15.40;99.90;;;;;;4589576;19;20078;-23
2022/11/15 00:09:03;;;;;;;49.10;32.28;;;15.50;99.90;;;;;;4592789;19;20014;-22
2022/11/15 00:10:34;;;;;;;46.75;32.65;;;15.50;99.90;;;;;;4591547;19;20021;-23
2022/11/15 00:12:05;;;;;;;45.78;33.40;;;15.50;99.90;;;;;;4591237;19;20057;-23
2022/11/15 00:13:36;;;;;;;47.58;32.65;;;15.50;99.90;;;;;;4591761;19;20013;-23
2022/11/15 00:15:08;;;;;;;51.28;34.47;;;15.50;99.90;;;;;;4591435;19;20014;-22
2022/11/15 00:16:39;;;;;;;50.42;34.15;;;15.50;99.90;;;;;;4590233;19;20018;-22
2022/11/15 00:18:13;;;;;;;46.40;32.53;;;15.60;99.90;;;;;;4590423;19;20026;-23
2022/11/15 00:19:45;;;;;;;50.25;35.63;;;15.50;99.90;;;;;;4589302;19;20025;-22
2022/11/15 00:21:16;;;;;;;46.78;31.70;;;15.60;99.90;;;;;;4588804;19;20464;-23
2022/11/15 00:22:47;;;;;;;48.70;33.90;;;15.50;99.90;;;;;;4590450;19;20070;-24
2022/11/15 00:24:18;;;;;;;46.50;32.72;;;15.50;99.90;;;;;;4592485;19;20018;-24
2022/11/15 00:25:56;;;;;;;50.40;32.60;;;15.50;99.90;;;;;;4590288;19;20045;-23
2022/11/15 00:27:27;;;;;;;48.55;32.40;;;15.50;99.90;;;;;;4591218;19;20066;-23
2022/11/15 00:28:59;;;;;;;50.15;33.63;;;15.50;99.90;;;;;;4591131;19;20046;-23
2022/11/15 00:30:30;;;;;;;50.65;33.95;;;15.50;99.90;;;;;;4590427;19;20022;-22
2022/11/15 00:32:01;;;;;;;46.53;32.60;;;15.50;99.90;;;;;;4589229;19;20365;-24
2022/11/15 00:33:33;;;;;;;50.03;33.45;;;15.50;99.90;;;;;;4589766;19;20090;-24
2022/11/15 00:35:04;;;;;;;49.95;33.10;;;15.50;99.90;;;;;;4592923;19;20019;-24
2022/11/15 00:36:35;;;;;;;48.92;32.33;;;15.50;99.90;;;;;;4591309;19;20374;-24
2022/11/15 00:38:06;;;;;;;47.35;31.42;;;15.50;99.90;;;;;;4590943;19;20010;-23
2022/11/15 00:39:38;;;;;;;46.75;32.13;;;15.50;99.90;;;;;;4591709;19;20046;-24
2022/11/15 00:41:09;;;;;;;51.08;34.92;;;15.50;99.90;;;;;;4587700;19;20006;-23
2022/11/15 00:42:40;;;;;;;50.50;33.60;;;15.50;99.90;;;;;;4590261;19;20011;-22
2022/11/15 00:44:11;;;;;;;52.47;35.38;;;15.40;99.90;;;;;;4590602;19;20006;-23
2022/11/15 00:45:42;;;;;;;50.80;33.67;;;15.50;99.90;;;;;;4590563;19;20017;-23
2022/11/15 00:47:14;;;;;;;50.67;33.03;;;15.40;99.90;;;;;;4588481;19;20011;-23
2022/11/15 00:48:45;;;;;;;53.67;35.67;;;15.40;99.90;;;;;;4589631;19;20479;-23
2022/11/15 00:50:16;;;;;;;49.13;32.80;;;15.40;99.90;;;;;;4592124;19;20020;-24
2022/11/15 00:51:47;;;;;;;51.22;33.67;;;15.40;99.90;;;;;;4592429;19;20035;-23
2022/11/15 00:53:18;;;;;;;53.90;34.17;;;15.40;99.90;;;;;;4591473;19;20006;-23
2022/11/15 00:54:49;;;;;;;54.38;35.53;;;15.40;99.90;;;;;;4590793;19;20002;-22
2022/11/15 00:56:20;;;;;;;51.97;33.67;;;15.40;99.90;;;;;;4590777;19;20021;-24
2022/11/15 00:57:51;;;;;;;50.50;34.08;;;15.40;99.90;;;;;;4590117;19;20484;-24
2022/11/15 00:59:22;;;;;;;52.75;34.15;;;15.40;99.90;;;;;;4589943;19;20006;-23
2022/11/15 01:00:54;;;;;;;52.20;34.03;;;15.40;99.90;;;;;;4588690;19;20007;-22
2022/11/15 01:02:25;;;;;;;49.28;33.45;;;15.40;99.90;;;;;;4589997;19;20014;-22
2022/11/15 01:03:57;;;;;;;50.20;33.95;;;15.40;99.90;;;;;;4590824;19;20015;-23
2022/11/15 01:05:28;;;;;;;52.42;34.45;;;15.40;99.90;;;;;;4590650;19;20080;-23
2022/11/15 01:06:59;;;;;;;48.65;32.90;;;15.40;99.90;;;;;;4590343;19;20018;-23
2022/11/15 01:08:30;;;;;;;49.25;32.65;;;15.40;99.90;;;;;;4591032;19;20018;-22
2022/11/15 01:10:01;;;;;;;52.17;31.65;;;15.40;99.90;;;;;;4589451;19;20006;-23
2022/11/15 01:11:32;;;;;;;55.78;36.28;;;15.40;99.90;;;;;;4589862;19;20044;-24
2022/11/15 01:13:03;;;;;;;50.97;34.60;;;15.40;99.90;;;;;;4590265;19;20477;-23
2022/11/15 01:14:34;;;;;;;50.47;31.90;;;15.40;99.90;;;;;;4589468;19;20018;-23
2022/11/15 01:16:18;;;;;;;56.15;35.78;;;15.40;99.90;;;;;;4589413;19;20015;-23
2022/11/15 01:17:50;;;;;;;54.25;35.53;;;15.40;99.90;;;;;;4587986;19;20017;-23
2022/11/15 01:19:21;;;;;;;52.00;34.45;;;15.40;99.90;;;;;;4588082;19;20057;-23
2022/11/15 01:20:52;;;;;;;52.30;35.45;;;15.40;99.90;;;;;;4590551;19;20472;-23
2022/11/15 01:22:23;;;;;;;53.22;35.50;;;15.40;99.90;;;;;;4591296;19;20014;-22
2022/11/15 01:23:55;;;;;;;51.30;33.92;;;15.40;99.90;;;;;;4590498;19;20481;-23
2022/11/15 01:25:26;;;;;;;;;;;15.30;99.90;;;;;;4590830;19;20015;-22
2022/11/15 01:26:57;;;;;;;50.13;32.25;;;15.40;99.90;;;;;;4588912;19;19931;-24
2022/11/15 01:28:33;;;;;;;49.83;31.67;;;15.40;99.90;;;;;;4588913;19;20010;-22
2022/11/15 01:30:04;;;;;;;48.13;32.53;;;15.30;99.90;;;;;;4587940;19;20463;-22
2022/11/15 01:31:35;;;;;;;;;;;15.40;99.90;;;;;;4590893;19;20014;-23
2022/11/15 01:33:07;;;;;;;50.55;30.95;;;15.30;99.90;;;;;;4590340;19;19988;-23
2022/11/15 01:34:38;;;;;;;48.47;32.95;;;15.30;99.90;;;;;;4590833;19;20029;-24
2022/11/15 01:36:21;;;;;;;46.78;30.83;;;15.30;99.90;;;;;;4590447;19;20035;-22
2022/11/15 01:37:52;;;;;;;47.95;30.77;;;15.30;99.90;;;;;;4590655;19;20035;-23
2022/11/15 01:39:24;;;;;;;47.20;31.98;;;15.30;99.90;;;;;;4589971;19;20011;-23
2022/11/15 01:40:55;;;;;;;49.60;32.63;;;15.30;99.90;;;;;;4587738;19;20467;-23
2022/11/15 01:42:26;;;;;;;48.40;32.95;;;15.40;99.90;;;;;;4587857;19;20479;-22
2022/11/15 01:44:18;;;;;;;52.78;34.42;;;15.30;99.90;;;;;;4588423;19;20349;-23
2022/11/15 01:46:13;;;;;;;47.42;30.88;;;15.30;99.90;;;;;;4588743;19;20017;-23
2022/11/15 01:47:50;;;;;;;49.33;31.58;;;15.30;99.90;;;;;;4588444;19;20021;-23
2022/11/15 01:49:22;;;;;;;50.97;32.33;;;15.30;99.90;;;;;;4587951;19;20050;-22
2022/11/15 01:50:53;;;;;;;53.28;33.83;;;15.30;99.90;;;;;;4587963;19;20017;-23
2022/11/15 01:52:26;;;;;;;52.47;33.78;;;15.30;99.90;;;;;;4588507;19;20009;-23
2022/11/15 01:53:58;;;;;;;51.03;33.03;;;15.30;99.90;;;;;;4587421;19;20025;-21
2022/11/15 01:55:30;;;;;;;49.28;31.20;;;15.30;99.90;;;;;;4590050;19;20089;-23
2022/11/15 01:57:08;;;;;;;46.78;32.17;;;15.30;99.90;;;;;;4589391;19;20014;-22
2022/11/15 01:58:42;;;;;;;49.30;32.58;;;15.30;99.90;;;;;;4589684;19;20365;-23
2022/11/15 02:00:15;;;;;;;46.47;30.42;;;15.30;99.90;;;;;;4589854;19;20086;-22
2022/11/15 02:01:46;;;;;;;48.70;31.92;;;15.30;99.90;;;;;;4590165;19;20019;-24
2022/11/15 02:03:17;;;;;;;46.17;30.88;;;15.30;99.90;;;;;;4588578;19;20014;-22
2022/11/15 02:04:48;;;;;;;54.20;33.78;;;15.30;99.90;;;;;;4589018;19;20476;-24
2022/11/15 02:06:20;;;;;;;51.83;32.45;;;15.30;99.90;;;;;;4588838;19;20016;-23
2022/11/15 02:07:51;;;;;;;55.08;34.17;;;15.30;99.90;;;;;;4587491;19;20014;-24
2022/11/15 02:09:22;;;;;;;53.70;33.00;;;15.30;99.90;;;;;;4587677;19;20014;-23
2022/11/15 02:10:53;;;;;;;48.78;32.47;;;15.30;99.90;;;;;;4588740;19;20015;-22
2022/11/15 02:12:24;;;;;;;48.17;31.33;;;15.30;99.90;;;;;;4589805;19;20529;-24
2022/11/15 02:13:56;;;;;;;50.33;32.95;;;15.30;99.90;;;;;;4589241;19;20056;-21
2022/11/15 02:15:31;;;;;;;48.05;30.45;;;15.30;99.90;;;;;;4588825;19;20372;-23
2022/11/15 02:17:07;;;;;;;50.70;32.63;;;15.30;99.90;;;;;;4588372;19;20081;-23
2022/11/15 02:19:16;;;;;;;47.83;30.75;;;15.30;99.90;;;;;;4589245;19;20018;-23
2022/11/15 02:21:22;;;;;;;47.00;30.85;;;15.30;99.90;;;;;;4587597;19;20014;-23
2022/11/15 02:23:19;;;;;;;48.85;30.95;;;15.30;99.90;;;;;;4585149;19;20370;-23
2022/11/15 02:25:20;;;;;;;49.47;31.15;;;15.30;99.90;;;;;;4588364;19;20609;-22
2022/11/15 02:27:48;;;;;;;49.95;32.88;;;15.30;99.90;;;;;;4585574;19;20454;-24
2022/11/15 02:29:38;;;;;;;47.25;30.73;;;15.30;99.90;;;;;;4586834;19;20015;-23
2022/11/15 02:31:11;;;;;;;49.38;29.88;;;15.30;99.90;;;;;;4587042;19;20007;-23
2022/11/15 02:32:52;;;;;;;47.38;30.85;;;15.30;99.90;;;;;;4586695;19;20025;-23
2022/11/15 02:34:23;;;;;;;44.13;28.77;;;15.30;99.90;;;;;;4585814;19;20131;-23
2022/11/15 02:36:02;;;;;;;48.65;30.58;;;15.30;99.90;;;;;;4586693;19;20010;-23
2022/11/15 02:38:08;;;;;;;47.63;29.85;;;15.30;99.90;;;;;;4586229;19;20115;-23
2022/11/15 02:39:50;;;;;;;46.70;29.02;;;15.30;99.90;;;;;;4587045;19;20007;-22
2022/11/15 02:41:28;;;;;;;48.70;30.85;;;15.30;99.90;;;;;;4586051;19;20010;-23
2022/11/15 02:44:53;;;;;;;52.07;31.80;;;15.30;99.90;;;;;;4587527;19;20021;-23
2022/11/15 02:48:29;;;;;;;50.30;32.55;;;15.30;99.90;;;;;;4588001;19;20022;-23
2022/11/15 02:50:06;;;;;;;45.80;29.15;;;15.30;99.90;;;;;;4587176;19;20394;-23
2022/11/15 02:51:38;;;;;;;43.83;29.30;;;15.30;99.90;;;;;;4587007;19;20011;-23
2022/11/15 02:53:10;;;;;;;42.10;27.55;;;15.30;99.90;;;;;;4586522;19;20518;-23
2022/11/15 02:54:41;;;;;;;45.78;28.48;;;15.30;99.90;;;;;;4586175;19;20010;-23
2022/11/15 02:56:12;;;;;;;43.85;28.75;;;15.30;99.90;;;;;;4585967;19;20014;-23
2022/11/15 02:58:11;;;;;;;44.58;28.95;;;15.30;99.90;;;;;;4585780;19;20061;-23
2022/11/15 03:00:01;;;;;;;46.42;28.58;;;15.30;99.90;;;;;;4586233;19;20047;-22
2022/11/15 03:01:55;;;;;;;44.88;28.55;;;15.30;99.90;;;;;;4587626;19;20448;-22
2022/11/15 03:03:53;;;;;;;43.10;28.65;;;15.30;99.90;;;;;;4588111;19;20022;-23
2022/11/15 03:05:37;;;;;;;46.60;28.90;;;15.30;99.90;;;;;;4589859;19;20010;-23
2022/11/15 03:07:18;;;;;;;47.42;31.10;;;15.30;99.90;;;;;;4588395;19;20011;-22
2022/11/15 03:09:04;;;;;;;45.75;29.75;;;15.30;99.90;;;;;;4588258;19;20435;-22
2022/11/15 03:11:09;;;;;;;49.25;30.20;;;15.30;99.90;;;;;;4586931;19;20010;-23
2022/11/15 03:13:06;;;;;;;55.25;31.33;;;15.30;99.90;;;;;;4587314;19;20017;-22
2022/11/15 03:14:48;;;;;;;51.47;32.10;;;15.30;99.90;;;;;;4585030;19;20014;-23
2022/11/15 03:16:27;;;;;;;51.67;32.70;;;15.30;99.90;;;;;;4585112;19;20785;-23
2022/11/15 03:18:08;;;;;;;49.90;32.00;;;15.30;99.90;;;;;;4585013;19;20003;-23
2022/11/15 03:19:51;;;;;;;48.72;31.50;;;15.30;99.90;;;;;;4585227;19;20010;-22
2022/11/15 03:21:22;;;;;;;54.53;34.33;;;15.30;99.90;;;;;;4583701;19;20022;-23
2022/11/15 03:22:54;;;;;;;50.22;31.88;;;15.30;99.90;;;;;;4585049;19;20095;-23
2022/11/15 03:24:25;;;;;;;52.00;32.45;;;15.30;99.90;;;;;;4590399;19;20022;-23
2022/11/15 03:25:56;;;;;;;53.70;32.67;;;15.30;99.90;;;;;;4590368;19;20035;-23
2022/11/15 03:27:31;;;;;;;52.50;32.83;;;15.30;99.90;;;;;;4590314;19;20506;-23
2022/11/15 03:29:14;;;;;;;53.42;33.00;;;15.30;99.90;;;;;;4590034;19;20018;-23
2022/11/15 03:30:46;;;;;;;53.38;32.33;;;15.30;99.90;;;;;;4590154;19;20013;-22
2022/11/15 03:32:23;;;;;;;53.33;32.50;;;15.30;99.90;;;;;;4588723;19;20007;-23
2022/11/15 03:33:55;;;;;;;45.75;28.65;;;15.30;99.90;;;;;;4588173;19;20014;-22
2022/11/15 03:35:28;;;;;;;47.70;30.47;;;15.30;99.90;;;;;;4589048;19;20052;-23
2022/11/15 03:36:59;;;;;;;48.58;29.10;;;15.30;99.90;;;;;;4589300;19;20044;-23
2022/11/15 03:38:30;;;;;;;47.00;31.05;;;15.30;99.90;;;;;;4592313;19;20006;-23
2022/11/15 03:40:01;;;;;;;47.28;29.15;;;15.30;99.90;;;;;;4591294;19;20423;-23
2022/11/15 03:41:43;;;;;;;46.75;30.17;;;15.30;99.90;;;;;;4589557;19;20781;-22
2022/11/15 03:43:34;;;;;;;49.88;31.13;;;15.30;99.90;;;;;;4590878;19;20014;-22
2022/11/15 03:45:32;;;;;;;46.25;29.08;;;15.30;99.90;;;;;;4591438;19;20771;-23
2022/11/15 03:47:23;;;;;;;41.65;27.75;;;15.30;99.90;;;;;;4588679;19;20487;-23
2022/11/15 03:49:26;;;;;;;45.67;29.67;;;15.30;99.90;;;;;;4589494;19;20349;-23
2022/11/15 03:50:57;;;;;;;44.47;29.10;;;15.30;99.90;;;;;;4589071;19;20024;-23
2022/11/15 03:52:31;;;;;;;43.95;27.55;;;15.30;99.90;;;;;;4588608;19;20014;-22
2022/11/15 03:54:04;;;;;;;43.13;29.27;;;15.30;99.90;;;;;;4588599;19;20074;-23
2022/11/15 03:55:35;;;;;;;43.53;27.00;;;15.30;99.90;;;;;;4588866;19;20007;-23
2022/11/15 03:57:06;;;;;;;43.15;28.20;;;15.30;99.90;;;;;;4590946;19;20018;-23
2022/11/15 03:58:37;;;;;;;46.30;29.65;;;15.30;99.90;;;;;;4590442;19;20050;-23
2022/11/15 04:00:09;;;;;;;44.60;28.17;;;15.30;99.90;;;;;;4590535;19;20831;-22
2022/11/15 04:01:40;;;;;;;;;;;15.30;99.90;;;;;;4589532;19;20037;-23
2022/11/15 04:03:11;;;;;;;44.55;28.33;;;15.30;99.90;;;;;;4589483;19;19915;-23
2022/11/15 04:04:42;;;;;;;44.30;27.70;;;15.30;99.90;;;;;;4589320;19;20018;-22
2022/11/15 04:06:13;;;;;;;45.30;29.40;;;15.30;99.90;;;;;;4589000;19;20015;-23
2022/11/15 04:07:44;;;;;;;51.25;31.30;;;15.30;99.90;;;;;;4588554;19;20106;-22
2022/11/15 04:09:16;;;;;;;44.45;29.10;;;15.20;99.90;;;;;;4588082;19;20014;-24
2022/11/15 04:10:49;;;;;;;48.97;30.35;;;15.30;99.90;;;;;;4590851;19;20047;-23
2022/11/15 04:12:30;;;;;;;45.78;28.98;;;15.30;99.90;;;;;;4590756;19;20014;-23
2022/11/15 04:14:01;;;;;;;46.67;28.48;;;15.30;99.90;;;;;;4591053;19;20018;-24
2022/11/15 04:15:32;;;;;;;42.67;27.00;;;15.30;99.90;;;;;;4590156;19;20106;-24
2022/11/15 04:17:03;;;;;;;48.17;29.58;;;15.30;99.90;;;;;;4589904;19;20011;-24
2022/11/15 04:18:35;;;;;;;44.90;29.35;;;15.30;99.90;;;;;;4589435;19;20010;-22
2022/11/15 04:24:12;;;;;;;47.70;29.35;;;15.20;99.90;;;;;;4589945;19;20017;-23
2022/11/15 04:25:43;;;;;;;52.40;32.13;;;15.30;99.90;;;;;;4589188;19;20380;-22
2022/11/15 04:27:15;;;;;;;49.40;32.90;;;15.20;99.90;;;;;;4588861;19;20029;-23
2022/11/15 04:30:35;;;;;;;47.05;30.27;;;15.30;99.90;;;;;;4589015;19;20011;-23
2022/11/15 04:32:07;;;;;;;51.50;30.50;;;15.20;99.90;;;;;;4589111;19;20078;-23
2022/11/15 04:33:38;;;;;;;50.25;32.53;;;15.30;99.90;;;;;;4589472;19;20523;-23
2022/11/15 04:35:09;;;;;;;51.50;32.15;;;15.30;99.90;;;;;;4589647;19;20045;-23
2022/11/15 04:38:30;;;;;;;42.22;27.38;;;15.20;99.90;;;;;;4592707;19;20019;-24
2022/11/15 04:40:01;;;;;;;38.78;25.90;;;15.30;99.90;;;;;;4590759;19;20043;-24
2022/11/15 04:41:32;;;;;;;41.58;26.52;;;15.20;99.90;;;;;;4590414;19;20372;-25
2022/11/15 04:43:04;;;;;;;42.55;27.90;;;15.30;99.90;;;;;;4591094;19;20032;-23
2022/11/15 04:44:35;;;;;;;43.78;27.98;;;15.30;99.90;;;;;;4590466;19;20525;-22
2022/11/15 04:46:06;;;;;;;43.83;26.73;;;15.30;99.90;;;;;;4591142;19;20025;-24
2022/11/15 04:47:37;;;;;;;41.13;27.58;;;15.30;99.90;;;;;;4591407;19;20006;-24
2022/11/15 04:49:08;;;;;;;43.20;27.52;;;15.40;99.90;;;;;;4590732;19;20015;-23
2022/11/15 04:50:39;;;;;;;41.38;25.83;;;15.50;99.90;;;;;;4590324;19;20487;-23
2022/11/15 04:52:10;;;;;;;43.22;27.27;;;15.60;99.90;;;;;;4590370;19;20018;-23
2022/11/15 04:53:41;;;;;;;44.85;29.00;;;15.60;99.90;;;;;;4591878;19;20018;-23
2022/11/15 04:55:13;;;;;;;43.22;28.35;;;15.70;99.90;;;;;;4590592;19;20011;-23
2022/11/15 04:56:44;;;;;;;39.70;27.48;;;15.70;99.90;;;;;;4591035;19;20018;-24
2022/11/15 04:58:15;;;;;;;45.75;28.08;;;15.70;99.90;;;;;;4590405;19;20081;-23
2022/11/15 04:59:46;;;;;;;43.10;28.80;;;15.70;99.90;;;;;;4589555;19;20011;-23
2022/11/15 05:01:17;;;;;;;44.25;28.10;;;15.70;99.90;;;;;;4588929;19;20007;-24
2022/11/15 05:04:38;;;;;;;46.17;28.20;;;15.80;99.90;;;;;;4590766;19;20007;-23
2022/11/15 05:06:09;;;;;;;44.97;28.42;;;15.70;99.90;;;;;;4590588;19;20040;-23
2022/11/15 05:07:40;;;;;;;44.03;28.95;;;15.70;99.90;;;;;;4589826;19;20006;-24
2022/11/15 05:09:12;;;;;;;45.13;28.27;;;15.80;99.90;;;;;;4589572;19;20521;-23
2022/11/15 05:10:44;;;;;;;42.83;27.38;;;15.70;99.90;;;;;;4590702;19;20045;-23
2022/11/15 05:12:15;;;;;;;39.83;27.35;;;15.70;99.90;;;;;;4590609;19;20006;-24
2022/11/15 05:13:46;;;;;;;45.30;28.52;;;15.70;99.90;;;;;;4591027;19;20018;-23
2022/11/15 05:15:17;;;;;;;43.88;28.20;;;15.70;99.90;;;;;;4590620;19;20498;-24
2022/11/15 05:16:48;;;;;;;40.22;27.00;;;15.70;99.90;;;;;;4590841;19;20006;-23
2022/11/15 05:18:19;;;;;;;42.83;28.38;;;15.70;99.90;;;;;;4590110;19;20027;-23
2022/11/15 05:19:51;;;;;;;41.95;27.08;;;15.70;99.90;;;;;;4591507;19;20014;-23
2022/11/15 05:21:22;;;;;;;40.78;25.95;;;15.70;99.90;;;;;;4590172;19;20020;-23
2022/11/15 05:22:55;;;;;;;44.72;27.95;;;15.70;99.90;;;;;;4589051;19;20018;-24
2022/11/15 05:24:26;;;;;;;42.22;27.98;;;15.70;99.90;;;;;;4589526;19;20014;-22
2022/11/15 05:26:01;;;;;;;43.00;28.95;;;15.70;99.90;;;;;;4590393;19;20032;-23
2022/11/15 05:27:33;;;;;;;44.33;28.60;;;15.70;99.90;;;;;;4589623;19;20082;-23
2022/11/15 05:29:04;;;;;;;44.70;27.45;;;15.70;99.90;;;;;;4590228;19;20018;-22
2022/11/15 05:30:35;;;;;;;44.55;27.38;;;15.70;99.90;;;;;;4590013;19;20023;-22
2022/11/15 05:32:07;;;;;;;47.60;30.08;;;15.70;99.90;;;;;;4587774;19;20024;-22
2022/11/15 05:33:39;;;;;;;44.38;28.75;;;15.70;99.90;;;;;;4587308;19;20507;-23
2022/11/15 05:35:12;;;;;;;;;;;15.70;99.90;;;;;;4587860;19;20031;-23
2022/11/15 05:36:45;;;;;;;49.10;30.23;;;15.60;99.90;;;;;;4588452;19;20349;-23
2022/11/15 05:38:16;;;;;;;42.75;28.02;;;15.60;99.90;;;;;;4586756;19;20021;-23
2022/11/15 05:39:47;;;;;;;47.88;29.45;;;15.60;99.90;;;;;;4589538;19;20479;-24
2022/11/15 05:41:20;;;;;;;51.22;30.60;;;15.60;99.90;;;;;;4589460;19;20034;-31
2022/11/15 05:42:51;;;;;;;47.08;28.27;;;15.60;99.90;;;;;;4588727;19;20015;-24
2022/11/15 05:44:23;;;;;;;45.95;29.08;;;15.60;99.90;;;;;;4589291;19;20010;-22
2022/11/15 05:45:54;;;;;;;47.03;29.13;;;15.60;99.90;;;;;;4589283;19;20022;-23
2022/11/15 05:47:25;;;;;;;47.22;29.83;;;15.60;99.90;;;;;;4587449;19;20010;-22
2022/11/15 05:48:56;;;;;;;46.00;28.90;;;15.60;99.90;;;;;;4588506;19;20065;-24
2022/11/15 05:50:28;;;;;;;44.88;29.27;;;15.60;99.90;;;;;;4585955;19;20094;-23
2022/11/15 05:51:59;;;;;;;46.00;28.13;;;15.50;99.90;;;;;;4588666;19;20035;-23
2022/11/15 05:53:30;;;;;;;43.90;27.92;;;15.60;99.90;;;;;;4590599;19;20017;-23
2022/11/15 05:55:02;;;;;;;42.22;28.23;;;15.60;99.90;;;;;;4590137;19;20027;-21
2022/11/15 05:56:33;;;;;;;43.47;28.05;;;15.60;99.90;;;;;;4588845;19;20024;-23
2022/11/15 05:58:04;;;;;;;44.33;29.63;;;15.50;99.90;;;;;;4589212;19;20027;-23
2022/11/15 05:59:35;;;;;;;52.97;31.63;;;15.60;99.90;;;;;;4589021;19;20475;-24
2022/11/15 06:01:06;;;;;;;47.33;28.90;;;15.50;99.90;;;;;;4588128;19;20070;-24
2022/11/15 06:02:38;;;;;;;47.05;27.50;;;15.50;99.90;;;;;;4588820;19;20006;-23
2022/11/15 06:04:09;;;;;;;45.38;29.20;;;15.50;99.90;;;;;;4588165;19;20017;-23
2022/11/15 06:05:40;;;;;;;45.28;29.20;;;15.50;99.90;;;;;;4587870;19;20022;-23
2022/11/15 06:07:12;;;;;;;42.65;27.65;;;15.50;99.90;;;;;;4589274;19;20022;-23
2022/11/15 06:08:43;;;;;;;43.88;27.65;;;15.50;99.90;;;;;;4589251;19;20011;-22
2022/11/15 06:10:14;;;;;;;46.15;28.65;;;15.50;99.90;;;;;;4589289;19;20010;-24
2022/11/15 06:11:45;;;;;;;43.22;26.30;;;15.50;99.90;;;;;;4588097;19;20415;-23
2022/11/15 06:13:17;;;;;;;42.83;27.15;;;15.50;99.90;;;;;;4588737;19;20015;-22
2022/11/15 06:14:48;;;;;;;45.50;29.05;;;15.50;99.90;;;;;;4588948;19;20074;-22
2022/11/15 06:16:19;;;;;;;;;;;15.50;99.90;;;;;;4589032;19;20019;-23
2022/11/15 06:17:51;;;;;;;45.70;28.02;;;15.50;99.90;;;;;;4587841;19;19960;-23
2022/11/15 06:19:22;;;;;;;;;;;15.50;99.90;;;;;;4589283;19;20010;-22
2022/11/15 06:20:54;;;;;;;45.10;27.08;;;15.50;99.90;;;;;;4590102;19;20233;-23
2022/11/15 06:22:25;;;;;;;45.70;27.25;;;15.50;99.90;;;;;;4590169;19;20021;-24
2022/11/15 06:23:56;;;;;;;44.13;29.08;;;15.50;99.90;;;;;;4589604;19;20021;-22
2022/11/15 06:25:27;;;;;;;41.28;25.83;;;15.50;99.90;;;;;;4587702;19;20045;-23
2022/11/15 06:26:59;;;;;;;45.10;28.80;;;15.50;99.90;;;;;;4587601;19;20031;-24
2022/11/15 06:28:30;;;;;;;43.50;27.45;;;15.50;99.90;;;;;;4587918;19;20026;-22
2022/11/15 06:30:01;;;;;;;;;;;15.50;99.90;;;;;;4587528;19;20010;-22
2022/11/15 06:31:34;;;;;;;44.33;26.48;;;15.50;99.90;;;;;;4589145;19;19982;-24
2022/11/15 06:33:05;;;;;;;44.65;27.98;;;15.50;99.90;;;;;;4588283;19;20078;-22
2022/11/15 06:34:36;;;;;;;43.80;28.70;;;15.50;99.90;;;;;;4588004;19;20022;-23
2022/11/15 06:36:10;;;;;;;47.35;29.92;;;15.50;99.90;;;;;;4587369;19;20039;-22
2022/11/15 06:37:41;;;;;;;43.30;27.98;;;15.60;99.90;;;;;;4588646;19;20093;-23
2022/11/15 06:39:12;;;;;;;45.63;28.02;;;15.60;99.90;;;;;;4588469;19;20018;-23
2022/11/15 06:40:43;;;;;;;47.40;30.48;;;15.60;99.90;;;;;;4587557;19;20087;-23
2022/11/15 06:42:14;;;;;;;46.63;28.73;;;15.50;99.90;;;;;;4586906;19;20011;-22
2022/11/15 06:43:45;;;;;;;48.08;28.65;;;15.50;99.90;;;;;;4587243;19;20030;-24
2022/11/15 06:45:17;;;;;;;47.42;28.35;;;15.50;99.90;;;;;;4588923;19;20515;-23
2022/11/15 06:46:48;;;;;;;42.50;29.20;;;15.50;99.90;;;;;;4588356;19;20768;-23
2022/11/15 06:48:19;;;;;;;40.47;26.02;;;15.50;99.90;;;;;;4587290;19;20018;-24
2022/11/15 06:49:50;;;;;;;46.20;28.52;;;15.50;99.90;;;;;;4588202;19;20018;-24
2022/11/15 06:51:22;;;;;;;43.88;26.75;;;15.50;99.90;;;;;;4588529;19;20259;-22
2022/11/15 06:52:54;;;;;;;43.05;27.23;;;15.50;99.90;;;;;;4587920;19;20021;-22
2022/11/15 06:54:25;;;;;;;43.38;26.83;;;15.50;99.90;;;;;;4587149;19;20010;-23
2022/11/15 06:56:01;;;;;;;44.95;28.40;;;15.50;99.90;;;;;;4587145;19;20501;-23
2022/11/15 06:57:32;;;;;;;44.90;26.73;;;15.50;99.90;;;;;;4586655;19;20116;-24
2022/11/15 06:59:03;;;;;;;40.78;25.48;;;15.50;99.90;;;;;;4591944;19;20022;-22
2022/11/15 07:00:34;;;;;;;44.38;28.45;;;15.50;99.90;;;;;;4594467;19;20018;-22
2022/11/15 07:02:05;;;;;;;46.17;27.67;;;15.50;99.90;;;;;;4594105;19;20015;-23
2022/11/15 07:03:38;;;;;;;43.50;28.05;;;15.50;99.90;;;;;;4593736;19;20021;-23
2022/11/15 07:05:19;;;;;;;44.85;27.65;;;15.50;99.90;;;;;;4592338;19;20015;-23
2022/11/15 07:06:56;;;;;;;42.17;26.83;;;15.50;99.90;;;;;;4592509;19;20014;-22
2022/11/15 07:08:28;;;;;;;44.58;27.90;;;15.50;99.90;;;;;;4592905;19;20431;-23
2022/11/15 07:09:59;;;;;;;45.60;28.30;;;15.50;99.90;;;;;;4591452;19;20029;-24
2022/11/15 07:11:30;;;;;;;43.88;27.70;;;15.50;99.90;;;;;;4592170;19;20467;-23
2022/11/15 07:13:01;;;;;;;44.67;27.75;;;15.50;99.90;;;;;;4592197;19;20028;-22
2022/11/15 07:14:33;;;;;;;42.72;26.95;;;15.50;99.90;;;;;;4590561;19;20038;-23
2022/11/15 07:16:05;;;;;;;47.00;28.10;;;15.50;99.90;;;;;;4591200;19;20321;-23
2022/11/15 07:17:36;;;;;;;44.05;29.70;;;15.40;99.90;;;;;;4593467;19;20066;-24
2022/11/15 07:19:08;;;;;;;45.15;29.42;;;15.40;99.90;;;;;;4591393;19;20011;-23
2022/11/15 07:20:39;;;;;;;46.72;28.80;;;15.50;99.90;;;;;;4591942;19;20498;-23
2022/11/15 07:22:10;;;;;;;37.95;26.38;;;15.50;99.90;;;;;;4592557;19;20014;-24
2022/11/15 07:23:42;;;;;;;43.25;27.73;;;15.50;99.90;;;;;;4593137;19;20018;-22
2022/11/15 07:25:13;;;;;;;42.60;27.15;;;15.50;99.90;;;;;;4591261;19;20017;-22
2022/11/15 07:26:44;;;;;;;41.67;27.25;;;15.40;99.90;;;;;;4590184;19;20026;-23
2022/11/15 07:28:15;;;;;;;41.08;26.80;;;15.40;99.90;;;;;;4593141;19;20015;-23
2022/11/15 07:29:46;;;;;;;41.08;26.98;;;15.50;99.90;;;;;;4593626;19;20007;-22
2022/11/15 07:31:17;;;;;;;43.15;28.48;;;15.50;99.90;;;;;;4592803;19;20002;-23
2022/11/15 07:32:55;;;;;;;40.80;26.52;;;15.50;99.90;;;;;;4592857;19;20530;-23
2022/11/15 07:34:26;;;;;;;38.10;25.75;;;15.50;99.90;;;;;;4590862;19;20025;-23
2022/11/15 07:36:01;;;;;;;40.40;26.05;;;15.50;99.90;;;;;;4592489;19;20011;-22
2022/11/15 07:37:32;;;;;;;41.40;26.75;;;15.50;99.90;;;;;;4591865;19;20015;-23
2022/11/15 07:39:03;;;;;;;39.85;26.40;;;15.60;99.90;;;;;;4590459;19;20010;-23
2022/11/15 07:40:35;;;;;;;42.40;28.60;;;15.60;99.90;;;;;;4591079;19;20014;-22
2022/11/15 07:43:57;;;;;;;47.05;29.80;;;15.50;99.90;;;;;;4591049;19;20014;-23
2022/11/15 07:45:28;;;;;;;45.35;27.48;;;15.50;99.90;;;;;;4588614;19;20077;-23
2022/11/15 07:47:00;;;;;;;42.53;26.85;;;15.50;99.90;;;;;;4592735;19;20025;-22
2022/11/15 07:48:31;;;;;;;44.28;28.33;;;15.40;99.90;;;;;;4593977;19;20025;-23
2022/11/15 07:50:02;;;;;;;40.13;26.30;;;15.50;99.90;;;;;;4592897;19;20003;-23
2022/11/15 07:51:33;;;;;;;40.92;26.55;;;15.40;99.90;;;;;;4591667;19;20520;-23
2022/11/15 07:53:04;;;;;;;49.13;30.30;;;15.40;99.90;;;;;;4592227;19;20039;-24
2022/11/15 07:54:36;;;;;;;41.35;27.73;;;15.40;99.90;;;;;;4591869;19;20018;-23
2022/11/15 07:56:07;;;;;;;42.75;28.10;;;15.40;99.90;;;;;;4590276;19;20031;-22
2022/11/15 07:57:38;;;;;;;41.72;26.58;;;15.40;99.90;;;;;;4589698;19;20376;-21
2022/11/15 07:59:09;;;;;;;38.88;28.00;;;15.40;99.90;;;;;;4589716;19;20014;-23
2022/11/15 08:00:55;;;;;;;40.90;27.02;;;15.40;99.90;;;;;;4590074;19;20003;-23
2022/11/15 08:02:27;;;;;;;46.58;30.90;;;15.40;99.90;;;;;;4590837;19;20011;-23
2022/11/15 08:03:58;;;;;;;43.25;28.58;;;15.40;99.90;;;;;;4593171;19;20010;-23
2022/11/15 08:05:29;;;;;;;42.72;27.20;;;15.40;99.90;;;;;;4593162;19;20011;-24
2022/11/15 08:07:00;;;;;;;43.75;27.23;;;15.40;99.90;;;;;;4591223;19;20014;-22
2022/11/15 08:08:32;;;;;;;42.25;26.55;;;15.40;99.90;;;;;;4591446;19;20086;-24
2022/11/15 08:10:05;;;;;;;41.08;27.73;;;15.40;99.90;;;;;;4590289;19;20011;-23
2022/11/15 08:11:37;;;;;;;44.05;27.58;;;15.40;99.90;;;;;;4591661;19;20091;-23
2022/11/15 08:13:10;;;;;;;41.88;28.95;;;15.40;99.90;;;;;;4590806;19;20022;-21